?

Log in

No account? Create an account
an124

mil_avia


Авиация & Aviation

Гражданские и военные / CIV and MIL


Previous Entry Share Next Entry
"Руслайн" раздумал лететь в Калининград
an124
mil_avia
Вечерний рейс из Берлина в Калининград авиакомпании "Руслайн" . Сегодня.

По какой-то причине КВС покружил в зоне ожидания около точки URAMA  и полетел во Внуково без посадки в Храброво.

Что-то он про ветер говорил . Дождей и гроз у нас  тут нет , сухо.

METAR был такой :

UMKK 291430Z 36012G18MPS 9999 SCT023 17/10 Q1013 WS R06 R06/CLRD60 NOSIG RMK QFE759/1012

UMKK 291500Z 36013G18MPS 9999 FEW020 16/09 Q1013 WS R06 R06/CLRD60 NOSIG RMK QFE759/1012

Кстати, это был последний рейс . В период проведения чемпионата мира по футболу авиакомпания «РусЛайн» возобновляет рейсы Калининград – Берлин. Полеты будут выполняться с 15 по 29 июня 2018 года. На линию поставлены комфортабельные 50-ти кресельные канадские самолеты Bombardier CRJ-100/200. Время в пути составит 1 час 20 минут.




С 7 июня 2018г новые тарифы и требования к багажу. Авиакомпания предлагает пять групп тарифов, отличающихся набором доступных опций: нормой бесплатного провоза багажа, условиями изменения перевозки, возможностью возврата билетов и т.д. Выберите тариф, подходящий именно вам.https://www.rusline.aero/read/rules_tariff/brand_tariffes/

Правила, действующие для билетов, приобретенных с 07.06.2018 г.
Вещи, находящиеся при пассажире (ручная кладь), перевозимые в салоне воздушного судна сверх установленной нормы бесплатного провоза багажа и не подлежащие оплате.
Нормы для ручной клади - 1 место ручной клади весом не более 10 кг и габаритами не более 55 см в длину, 40 см в высоту, 20 см в ширину.https://www.rusline.aero/read/rules_of_transportation/perevozka-bagaja/

Раньше ручная кладь у них была до 5кг - прогресс!

- Руслайн с 30 октября в Прагу и Берлин https://mil-avia.livejournal.com/438575.html
- Руслайн начал с 31 октября 2017г https://mil-avia.livejournal.com/467431.html
- Руслайн отлетался из Калининграда январь 2017 https://mil-avia.livejournal.com/487036.html

UPDATE / Ответ в Фейсбуке :

RusLine Russ Alex, добрый день, рейс РГ278 Берлин-Калининград 29.06.18 ушел в запасной аэродром (Москва, Внуково) в связи с неблагоприятными метеоусловиями в аэропорту Храброво (сильный боковой ветер). Безопасность полетов и пассажиров - наш главный приоритет.

Posts from This Journal by “руслайн” Tag

  • Короткая программа "Руслайна" в Калининграде

    На сайте авиакомпании написано так : С 15 июня 2018 года на время проведения Чемпионата мира по футболу FIFA 2018 авиакомпания…

  • "Руслайн" отлетался

    Не сказать , что удивлён данной новости . Агония началась перед Новым годом, когда они отменили много рейсов из Калининграда в Европу, чем вызвали…